createdAt,value
2022-08-11T00:04:22.307Z,101283.79
2022-08-11T00:20:16.715Z,101281.17
2022-08-11T00:27:04.153Z,101281.23
2022-08-11T00:33:57.664Z,101280.59
2022-08-11T00:45:34.524Z,101274.25
2022-08-11T00:52:22.246Z,101280.09
2022-08-11T00:59:35.160Z,101277.96
2022-08-11T01:02:15.505Z,101276.05
2022-08-11T01:05:12.772Z,101277.70
2022-08-11T01:08:01.838Z,101279.96
2022-08-11T01:10:30.300Z,101283.56
2022-08-11T01:13:19.086Z,101283.98
2022-08-11T01:16:10.604Z,101282.75
2022-08-11T01:18:40.381Z,101280.44
2022-08-11T01:22:20.987Z,101280.25
2022-08-11T01:29:39.951Z,101280.34
2022-08-11T01:32:55.632Z,101275.89
2022-08-11T01:35:42.891Z,101279.46
2022-08-11T01:38:37.479Z,101282.88
2022-08-11T01:41:49.210Z,101284.28
2022-08-11T01:44:41.017Z,101282.66
2022-08-11T01:56:33.695Z,101272.92
2022-08-11T02:03:39.664Z,101275.83
2022-08-11T02:10:59.686Z,101280.34
2022-08-11T02:13:58.125Z,101281.45
2022-08-11T02:16:24.917Z,101280.94
2022-08-11T02:24:03.985Z,101280.94
2022-08-11T02:26:36.909Z,101282.00
2022-08-11T02:29:26.427Z,101286.27
2022-08-11T02:36:54.980Z,101296.78
2022-08-11T02:49:07.005Z,101290.90
2022-08-11T02:55:59.816Z,101293.48
2022-08-11T02:59:10.884Z,101296.88
2022-08-11T03:05:52.703Z,101296.30
2022-08-11T03:08:36.239Z,101294.30
2022-08-11T03:11:42.016Z,101288.45
2022-08-11T03:14:55.464Z,101295.69
2022-08-11T03:26:37.979Z,101301.54
2022-08-11T03:34:12.956Z,101304.67
2022-08-11T03:37:14.832Z,101305.35
2022-08-11T03:40:04.540Z,101307.48
2022-08-11T03:42:50.369Z,101312.26
2022-08-11T03:54:21.846Z,101315.17
2022-08-11T03:56:55.182Z,101314.30
2022-08-11T04:00:11.266Z,101308.25
2022-08-11T04:02:59.427Z,101312.36
2022-08-11T04:10:02.026Z,101313.14
2022-08-11T04:17:30.638Z,101313.98
2022-08-11T04:24:38.140Z,101316.80
2022-08-11T04:27:36.976Z,101312.33
2022-08-11T04:30:49.165Z,101310.45
2022-08-11T04:33:56.433Z,101312.91
2022-08-11T04:40:51.599Z,101316.70
2022-08-11T04:43:21.204Z,101318.03
2022-08-11T04:46:15.214Z,101317.66
2022-08-11T04:49:03.723Z,101318.55
2022-08-11T04:52:01.226Z,101322.39
2022-08-11T04:55:24.708Z,101318.93
2022-08-11T04:58:29.991Z,101319.40
2022-08-11T05:01:26.233Z,101319.36
2022-08-11T05:04:40.566Z,101317.04
2022-08-11T05:07:46.074Z,101319.15
2022-08-11T05:10:43.175Z,101319.56
2022-08-11T05:13:31.229Z,101321.25
2022-08-11T05:16:22.508Z,101318.27
2022-08-11T05:19:12.004Z,101319.27
2022-08-11T05:22:07.241Z,101314.49
2022-08-11T05:25:04.987Z,101318.44
2022-08-11T05:28:04.570Z,101316.58
2022-08-11T05:30:51.516Z,101315.30
2022-08-11T05:34:08.159Z,101318.24
2022-08-11T05:36:50.751Z,101319.58
2022-08-11T05:39:43.287Z,101318.58
2022-08-11T05:42:30.711Z,101318.45
2022-08-11T05:46:02.496Z,101316.02
2022-08-11T05:48:40.079Z,101308.30
2022-08-11T05:51:30.399Z,101316.30
2022-08-11T05:54:28.347Z,101315.52
2022-08-11T05:57:02.394Z,101316.45
2022-08-11T05:59:31.772Z,101314.42
2022-08-11T06:02:05.947Z,101312.55
2022-08-11T06:04:33.927Z,101305.08
2022-08-11T06:07:11.533Z,101307.95
2022-08-11T06:09:50.928Z,101313.18
2022-08-11T06:12:21.916Z,101309.69
2022-08-11T06:14:54.385Z,101308.83
2022-08-11T06:17:26.964Z,101312.06
2022-08-11T06:20:13.320Z,101308.70
2022-08-11T06:22:44.022Z,101308.20
2022-08-11T06:25:12.554Z,101309.02
2022-08-11T06:27:43.323Z,101313.27
2022-08-11T06:30:14.400Z,101311.84
2022-08-11T06:32:46.024Z,101311.88
2022-08-11T06:35:30.661Z,101314.08
2022-08-11T06:38:12.942Z,101316.94
2022-08-11T06:41:22.262Z,101320.10
2022-08-11T06:43:55.394Z,101320.96
2022-08-11T06:46:32.002Z,101322.18
2022-08-11T06:49:02.932Z,101322.17
2022-08-11T06:51:32.547Z,101317.03
2022-08-11T06:54:04.739Z,101314.17
2022-08-11T06:57:28.414Z,101305.97
2022-08-11T07:00:05.495Z,101294.34
2022-08-11T07:02:37.504Z,101293.44
2022-08-11T07:05:23.919Z,101285.97
2022-08-11T07:08:40.718Z,101287.39
2022-08-11T07:11:46.465Z,101292.14
2022-08-11T07:14:39.151Z,101295.14
2022-08-11T07:17:11.453Z,101290.10
2022-08-11T07:20:00.151Z,101288.08
2022-08-11T07:22:50.366Z,101280.14
2022-08-11T07:25:37.398Z,101284.46
2022-08-11T07:28:44.428Z,101293.63
2022-08-11T07:31:14.143Z,101287.64
2022-08-11T07:34:07.350Z,101288.86
2022-08-11T07:36:41.041Z,101289.23
2022-08-11T07:39:15.555Z,101283.04
2022-08-11T07:41:43.452Z,101284.67
2022-08-11T07:44:11.809Z,101287.63
2022-08-11T07:47:02.433Z,101287.55
2022-08-11T07:49:55.638Z,101284.78
2022-08-11T07:52:30.633Z,101286.64
2022-08-11T07:55:03.462Z,101283.56
2022-08-11T07:58:13.670Z,101282.65
2022-08-11T08:01:02.709Z,101277.34
2022-08-11T08:03:54.372Z,101278.61
2022-08-11T08:06:41.624Z,101279.51
2022-08-11T08:09:29.441Z,101277.88
2022-08-11T08:12:16.711Z,101277.45
2022-08-11T08:15:02.196Z,101275.27
2022-08-11T08:18:09.040Z,101267.86
2022-08-11T08:20:50.225Z,101270.26
2022-08-11T08:23:33.661Z,101265.55
2022-08-11T08:26:16.678Z,101268.67
2022-08-11T08:28:46.763Z,101265.70
2022-08-11T08:31:14.340Z,101270.41
2022-08-11T08:33:42.072Z,101271.02
2022-08-11T08:36:15.094Z,101266.95
2022-08-11T08:38:47.466Z,101264.73
2022-08-11T08:41:19.839Z,101261.80
2022-08-11T08:43:51.566Z,101259.16
2022-08-11T08:46:22.536Z,101257.19
2022-08-11T08:48:52.158Z,101253.89
2022-08-11T08:51:58.851Z,101253.85
2022-08-11T08:54:29.225Z,101257.40
2022-08-11T08:56:57.531Z,101262.80
2022-08-11T08:59:27.141Z,101257.02
2022-08-11T09:02:14.769Z,101261.27
2022-08-11T09:04:45.832Z,101253.90
2022-08-11T09:07:23.303Z,101253.83
2022-08-11T09:09:52.422Z,101249.91
2022-08-11T09:12:38.215Z,101247.92
2022-08-11T09:15:10.614Z,101240.69
2022-08-11T09:17:52.021Z,101243.21
2022-08-11T09:20:25.880Z,101244.52
2022-08-11T09:26:30.531Z,101242.97
2022-08-11T09:29:00.106Z,101236.58
2022-08-11T09:31:34.591Z,101240.15
2022-08-11T09:34:11.404Z,101240.41
2022-08-11T09:37:00.023Z,101234.23
2022-08-11T09:39:48.080Z,101235.12
2022-08-11T09:42:23.181Z,101235.52
2022-08-11T09:44:53.510Z,101234.29
2022-08-11T09:47:32.272Z,101235.48
2022-08-11T09:50:02.318Z,101230.77
2022-08-11T09:52:33.060Z,101232.08
2022-08-11T09:55:01.441Z,101230.00
2022-08-11T09:57:47.039Z,101227.84
2022-08-11T10:00:15.485Z,101226.99
2022-08-11T10:02:48.822Z,101225.86
2022-08-11T10:05:38.303Z,101224.65
2022-08-11T10:08:07.847Z,101219.55
2022-08-11T10:10:37.807Z,101218.86
2022-08-11T10:14:32.218Z,101209.47
2022-08-11T10:16:16.092Z,101193.77
2022-08-11T10:18:53.271Z,101198.58
2022-08-11T10:21:44.127Z,101203.24
2022-08-11T10:24:31.088Z,101200.94
2022-08-11T10:27:03.568Z,101198.19
2022-08-11T10:29:51.194Z,101192.48
2022-08-11T10:32:58.021Z,101184.98
2022-08-11T10:35:31.828Z,101175.25
2022-08-11T10:38:07.358Z,101172.57
2022-08-11T10:40:39.816Z,101170.19
2022-08-11T10:43:13.968Z,101166.73
2022-08-11T10:46:05.933Z,101165.16
2022-08-11T10:48:38.295Z,101160.33
2022-08-11T10:51:15.093Z,101156.88
2022-08-11T10:54:07.240Z,101155.48
2022-08-11T10:56:58.960Z,101161.54
2022-08-11T10:59:30.127Z,101169.17
2022-08-11T11:01:59.317Z,101162.63
2022-08-11T11:04:53.446Z,101156.86
2022-08-11T11:07:30.145Z,101152.08
2022-08-11T11:10:02.016Z,101146.29
2022-08-11T11:13:13.059Z,101148.55
2022-08-11T11:16:01.448Z,101149.09
2022-08-11T11:18:36.070Z,101142.27
2022-08-11T11:21:14.900Z,101138.66
2022-08-11T11:24:01.723Z,101139.43
2022-08-11T11:26:56.314Z,101135.89
2022-08-11T11:29:42.098Z,101137.89
2022-08-11T11:32:28.080Z,101132.67
2022-08-11T11:35:16.268Z,101133.31
2022-08-11T11:38:03.866Z,101133.55
2022-08-11T11:40:32.958Z,101132.78
2022-08-11T11:43:00.948Z,101125.95
2022-08-11T11:45:28.594Z,101121.23
2022-08-11T11:47:59.161Z,101122.73
2022-08-11T11:50:35.270Z,101111.80
2022-08-11T11:53:07.451Z,101106.02
2022-08-11T11:55:36.281Z,101105.98
2022-08-11T11:58:24.286Z,101097.99
2022-08-11T12:01:12.624Z,101091.76
2022-08-11T12:03:41.008Z,101090.45
2022-08-11T12:06:12.244Z,101085.17
2022-08-11T12:08:39.235Z,101089.54
2022-08-11T12:11:31.993Z,101084.43
2022-08-11T12:14:02.583Z,101086.26
2022-08-11T12:16:36.639Z,101079.26
2022-08-11T12:19:07.821Z,101076.77
2022-08-11T12:21:37.337Z,101081.36
2022-08-11T12:24:29.138Z,101082.02
2022-08-11T12:27:17.784Z,101077.75
2022-08-11T12:29:55.659Z,101076.27
2022-08-11T12:32:35.455Z,101072.70
2022-08-11T12:35:02.752Z,101073.61
2022-08-11T12:37:40.947Z,101068.29
2022-08-11T12:40:43.409Z,101066.48
2022-08-11T12:43:41.205Z,101060.77
2022-08-11T12:46:28.072Z,101060.50
2022-08-11T12:49:17.598Z,101061.16
2022-08-11T12:52:12.897Z,101063.84
2022-08-11T12:54:52.477Z,101062.82
2022-08-11T12:58:01.359Z,101064.38
2022-08-11T13:00:49.558Z,101063.64
2022-08-11T13:03:38.583Z,101054.89
2022-08-11T13:06:06.974Z,101055.67
2022-08-11T13:08:37.084Z,101052.12
2022-08-11T13:11:55.871Z,101049.41
2022-08-11T13:14:22.179Z,101042.31
2022-08-11T13:17:08.059Z,101047.63
2022-08-11T13:19:36.237Z,101051.25
2022-08-11T13:22:07.658Z,101054.92
2022-08-11T13:24:36.244Z,101061.05
2022-08-11T13:27:03.711Z,101058.52
2022-08-11T13:29:31.272Z,101063.66
2022-08-11T13:32:00.204Z,101056.46
2022-08-11T13:34:31.417Z,101051.80
2022-08-11T13:37:01.740Z,101047.37
2022-08-11T13:39:31.441Z,101048.77
2022-08-11T13:42:01.297Z,101051.12
2022-08-11T13:44:31.545Z,101045.55
2022-08-11T13:47:02.178Z,101044.69
2022-08-11T13:49:35.960Z,101042.85
2022-08-11T13:52:04.629Z,101042.37
2022-08-11T13:54:35.112Z,101033.16
2022-08-11T13:57:10.758Z,101033.52
2022-08-11T13:59:52.492Z,101034.08
2022-08-11T14:02:32.012Z,101036.82
2022-08-11T14:05:07.174Z,101032.88
2022-08-11T14:07:40.365Z,101037.13
2022-08-11T14:10:10.638Z,101037.30
2022-08-11T14:13:00.125Z,101038.86
2022-08-11T14:15:35.213Z,101038.64
2022-08-11T14:18:05.497Z,101038.04
2022-08-11T14:20:53.441Z,101040.50
2022-08-11T14:23:37.257Z,101043.06
2022-08-11T14:26:23.715Z,101053.05
2022-08-11T14:28:55.343Z,101055.08
2022-08-11T14:31:28.678Z,101058.16
2022-08-11T14:34:01.073Z,101059.02
2022-08-11T14:36:35.496Z,101056.17
2022-08-11T14:39:08.392Z,101053.39
2022-08-11T14:42:12.231Z,101057.73
2022-08-11T14:45:02.577Z,101054.17
2022-08-11T14:47:33.854Z,101055.98
2022-08-11T14:50:11.185Z,101055.61
2022-08-11T14:52:50.676Z,101051.96
2022-08-11T14:55:39.329Z,101051.04
2022-08-11T14:58:10.013Z,101045.96
2022-08-11T15:00:38.853Z,101042.88
2022-08-11T15:03:11.276Z,101048.44
2022-08-11T15:05:57.377Z,101046.95
2022-08-11T15:08:47.290Z,101046.84
2022-08-11T15:11:34.529Z,101043.64
2022-08-11T15:14:04.841Z,101040.23
2022-08-11T15:16:50.799Z,101040.92
2022-08-11T15:19:21.535Z,101045.02
2022-08-11T15:22:08.783Z,101051.35
2022-08-11T15:24:36.917Z,101049.11
2022-08-11T15:27:25.482Z,101050.27
2022-08-11T15:30:29.874Z,101039.03
2022-08-11T15:33:23.320Z,101045.13
2022-08-11T15:36:10.308Z,101041.27
2022-08-11T15:38:43.041Z,101039.89
2022-08-11T15:41:32.854Z,101040.37
2022-08-11T15:44:26.853Z,101040.83
2022-08-11T15:47:09.175Z,101025.86
2022-08-11T15:50:10.952Z,101020.96
2022-08-11T15:52:43.776Z,101026.45
2022-08-11T15:55:11.591Z,101027.71
2022-08-11T15:57:59.675Z,101025.80
2022-08-11T16:00:47.106Z,101024.71
2022-08-11T16:04:07.782Z,101036.19
2022-08-11T16:06:22.506Z,101037.32
2022-08-11T16:08:52.898Z,101037.49
2022-08-11T16:11:22.365Z,101032.71
2022-08-11T16:14:10.181Z,101030.51
2022-08-11T16:16:39.760Z,101025.77
2022-08-11T16:19:10.984Z,101031.70
2022-08-11T16:21:40.497Z,101031.78
2022-08-11T16:26:30.662Z,101030.54
2022-08-11T16:27:10.236Z,101031.17
2022-08-11T16:29:45.055Z,101031.15
2022-08-11T16:32:16.921Z,101023.58
2022-08-11T16:35:12.133Z,101028.95
2022-08-11T16:38:01.095Z,101033.82
2022-08-11T16:40:29.721Z,101037.52
2022-08-11T16:43:17.544Z,101035.64
2022-08-11T16:46:04.203Z,101037.38
2022-08-11T16:48:37.181Z,101037.16
2022-08-11T16:51:07.236Z,101033.55
2022-08-11T16:53:54.914Z,101031.21
2022-08-11T16:56:32.737Z,101036.51
2022-08-11T16:59:16.205Z,101039.88
2022-08-11T17:02:06.770Z,101031.89
2022-08-11T17:05:11.265Z,101032.09
2022-08-11T17:08:01.279Z,101031.89
2022-08-11T17:10:56.680Z,101034.42
2022-08-11T17:13:37.197Z,101033.06
2022-08-11T17:16:08.538Z,101030.01
2022-08-11T17:18:51.575Z,101033.11
2022-08-11T17:21:37.321Z,101033.88
2022-08-11T17:24:09.243Z,101035.73
2022-08-11T17:26:55.839Z,101037.13
2022-08-11T17:29:54.609Z,101038.27
2022-08-11T17:32:56.166Z,101038.19
2022-08-11T17:35:31.402Z,101037.38
2022-08-11T17:38:13.099Z,101036.44
2022-08-11T17:41:23.221Z,101037.46
2022-08-11T17:44:12.770Z,101043.89
2022-08-11T17:47:05.911Z,101044.41
2022-08-11T17:49:42.449Z,101040.59
2022-08-11T17:52:46.649Z,101035.91
2022-08-11T17:55:52.104Z,101037.04
2022-08-11T17:58:39.945Z,101038.01
2022-08-11T18:01:10.020Z,101043.56
2022-08-11T18:03:42.044Z,101042.81
2022-08-11T18:06:29.731Z,101045.44
2022-08-11T18:09:23.702Z,101053.52
2022-08-11T18:12:12.846Z,101063.48
2022-08-11T18:15:04.131Z,101068.23
2022-08-11T18:17:50.408Z,101074.97
2022-08-11T18:20:38.029Z,101082.29
2022-08-11T18:23:41.984Z,101091.91
2022-08-11T18:26:38.314Z,101108.59
2022-08-11T18:29:27.022Z,101111.73
2022-08-11T18:32:21.998Z,101105.95
2022-08-11T18:35:13.590Z,101100.86
2022-08-11T18:38:05.709Z,101101.48
2022-08-11T18:40:54.211Z,101103.09
2022-08-11T18:43:44.477Z,101101.11
2022-08-11T18:46:34.245Z,101100.45
2022-08-11T18:49:33.140Z,101099.30
2022-08-11T18:52:37.221Z,101095.64
2022-08-11T18:55:28.329Z,101092.39
2022-08-11T18:58:16.369Z,101089.23
2022-08-11T19:01:05.939Z,101088.16
2022-08-11T19:03:54.605Z,101087.99
2022-08-11T19:06:50.564Z,101095.65
2022-08-11T19:09:37.340Z,101099.61
2022-08-11T19:12:27.222Z,101107.63
2022-08-11T19:15:13.827Z,101106.98
2022-08-11T19:18:01.278Z,101103.33
2022-08-11T19:20:49.809Z,101107.86
2022-08-11T19:23:45.632Z,101106.06
2022-08-11T19:26:33.662Z,101111.80
2022-08-11T19:30:12.035Z,101110.84
2022-08-11T19:32:31.486Z,101101.92
2022-08-11T19:35:20.748Z,101102.52
2022-08-11T19:38:08.600Z,101104.48
2022-08-11T19:40:57.417Z,101101.31
2022-08-11T19:43:45.768Z,101099.55
2022-08-11T19:46:35.950Z,101102.41
2022-08-11T19:49:22.699Z,101102.23
2022-08-11T19:52:09.503Z,101102.92
2022-08-11T19:54:57.183Z,101091.75
2022-08-11T19:57:44.340Z,101090.29
2022-08-11T20:00:42.269Z,101092.20
2022-08-11T20:03:29.994Z,101097.98
2022-08-11T20:06:20.117Z,101099.16
2022-08-11T20:09:08.257Z,101097.83
2022-08-11T20:12:01.517Z,101093.77
2022-08-11T20:14:51.197Z,101093.27
2022-08-11T20:17:38.165Z,101086.86
2022-08-11T20:20:26.320Z,101079.72
2022-08-11T20:23:14.162Z,101079.86
2022-08-11T20:26:14.014Z,101082.96
2022-08-11T20:29:02.143Z,101085.94
2022-08-11T20:31:48.935Z,101085.34
2022-08-11T20:34:36.431Z,101084.44
2022-08-11T20:37:23.543Z,101088.92
2022-08-11T20:40:10.468Z,101086.64
2022-08-11T20:42:57.836Z,101091.23
2022-08-11T20:45:52.006Z,101090.50
2022-08-11T20:48:43.853Z,101092.96
2022-08-11T20:51:38.924Z,101088.33
2022-08-11T20:54:38.152Z,101087.20
2022-08-11T20:57:35.518Z,101075.84
2022-08-11T21:00:40.353Z,101073.67
2022-08-11T21:03:36.224Z,101072.90
2022-08-11T21:06:32.957Z,101073.13
2022-08-11T21:09:58.831Z,101078.89
2022-08-11T21:15:38.639Z,101078.26
2022-08-11T21:18:35.267Z,101081.53
2022-08-11T21:21:25.538Z,101082.68
2022-08-11T21:24:13.494Z,101082.74
2022-08-11T21:27:05.749Z,101081.48
2022-08-11T21:29:55.505Z,101084.68
2022-08-11T21:32:43.503Z,101089.33
2022-08-11T21:35:30.010Z,101093.23
2022-08-11T21:38:17.574Z,101087.85
2022-08-11T21:41:06.220Z,101087.14
2022-08-11T21:43:52.696Z,101088.13
2022-08-11T21:46:40.682Z,101090.85
2022-08-11T21:49:30.008Z,101087.61
2022-08-11T21:52:15.573Z,101088.65
2022-08-11T21:55:02.542Z,101089.94
2022-08-11T21:57:49.866Z,101091.95
2022-08-11T22:00:37.593Z,101094.64
2022-08-11T22:03:25.023Z,101098.48
2022-08-11T22:06:16.038Z,101094.44
2022-08-11T22:09:02.936Z,101095.48
2022-08-11T22:11:50.627Z,101092.06
2022-08-11T22:14:56.628Z,101093.25
2022-08-11T22:17:42.251Z,101093.45
2022-08-11T22:20:31.503Z,101095.56
2022-08-11T22:23:21.669Z,101089.66
2022-08-11T22:26:11.757Z,101093.44
2022-08-11T22:28:57.770Z,101088.00
2022-08-11T22:31:44.637Z,101084.30
2022-08-11T22:34:32.905Z,101082.45
2022-08-11T22:37:27.743Z,101081.95
2022-08-11T22:40:15.229Z,101080.86
2022-08-11T22:43:02.963Z,101081.92
2022-08-11T22:45:48.781Z,101083.20
2022-08-11T22:48:36.322Z,101078.59
2022-08-11T22:51:22.880Z,101082.77
2022-08-11T22:54:09.905Z,101086.08
2022-08-11T22:56:56.023Z,101086.43
2022-08-11T22:59:43.205Z,101081.86
2022-08-11T23:02:29.880Z,101080.29
2022-08-11T23:05:18.299Z,101077.70
2022-08-11T23:08:04.496Z,101079.52
2022-08-11T23:10:50.855Z,101077.65
2022-08-11T23:13:37.912Z,101074.98
2022-08-11T23:16:24.276Z,101072.15
2022-08-11T23:19:10.991Z,101075.58
2022-08-11T23:21:57.013Z,101074.70
2022-08-11T23:24:43.885Z,101065.84
2022-08-11T23:27:30.824Z,101065.66
2022-08-11T23:30:18.988Z,101060.16
2022-08-11T23:33:07.939Z,101060.82
2022-08-11T23:36:01.062Z,101055.88
2022-08-11T23:38:49.454Z,101051.89
2022-08-11T23:41:35.600Z,101050.45
2022-08-11T23:44:22.466Z,101050.66
2022-08-11T23:47:11.174Z,101046.13
2022-08-11T23:49:57.724Z,101046.65
2022-08-11T23:52:45.981Z,101044.11
2022-08-11T23:55:31.937Z,101042.52
2022-08-11T23:58:17.912Z,101042.90
